Time;durP1;ratioP1;P1;durP2;ratioP2;P2;SDS_P1;SDS_P2;PMS_P1;PMS_P2;Temp;Humidity;BMP_temperature;BMP_pressure;BME280_temperature;BME280_humidity;BME280_pressure;Samples;Min_cycle;Max_cycle;Signal;HPM_P1;HPM_P2
2023/11/08 00:01:58;;;;;;;1.52;1.42;;;17.60;89.50;;;;;;5059370;28;20379;-75
2023/11/08 00:04:23;;;;;;;1.48;1.38;;;17.60;89.60;;;;;;5062510;28;20053;-77
2023/11/08 00:06:49;;;;;;;1.92;1.83;;;17.50;89.40;;;;;;5062911;28;20491;-75
2023/11/08 00:09:14;;;;;;;2.20;1.60;;;17.50;89.40;;;;;;5059814;28;20067;-77
2023/11/08 00:11:40;;;;;;;1.50;1.40;;;17.50;89.40;;;;;;5058655;28;20032;-77
2023/11/08 00:14:06;;;;;;;1.58;1.48;;;17.50;89.50;;;;;;5061953;28;20044;-77
2023/11/08 00:16:32;;;;;;;1.40;1.30;;;17.50;89.60;;;;;;5092224;28;20040;-77
2023/11/08 00:18:58;;;;;;;1.73;1.63;;;17.50;89.50;;;;;;5062860;28;20113;-76
2023/11/08 00:21:24;;;;;;;1.27;1.25;;;17.50;89.60;;;;;;5023643;28;1131957;-78
2023/11/08 00:23:53;;;;;;;1.40;1.30;;;17.50;89.50;;;;;;5089583;28;20052;-77
2023/11/08 00:26:19;;;;;;;1.40;1.30;;;17.50;89.40;;;;;;5064772;28;20133;-76
2023/11/08 00:28:45;;;;;;;1.77;1.55;;;17.50;89.40;;;;;;5081034;28;20640;-77
2023/11/08 00:31:11;;;;;;;1.58;1.48;;;17.50;89.50;;;;;;5078770;28;20036;-77
2023/11/08 00:33:37;;;;;;;1.10;1.10;;;17.50;89.50;;;;;;5074016;28;20182;-76
2023/11/08 00:36:03;;;;;;;1.52;1.33;;;17.50;89.50;;;;;;5093254;28;20202;-77
2023/11/08 00:38:28;;;;;;;1.30;1.20;;;17.50;89.50;;;;;;5063159;28;20036;-76
2023/11/08 00:40:54;;;;;;;1.30;1.20;;;17.50;89.60;;;;;;5074183;28;20044;-77
2023/11/08 00:43:19;;;;;;;1.30;1.20;;;17.50;89.40;;;;;;5060720;28;20040;-77
2023/11/08 00:45:45;;;;;;;1.23;1.13;;;17.50;89.60;;;;;;5063210;28;20562;-77
2023/11/08 00:48:11;;;;;;;1.35;1.25;;;17.50;89.60;;;;;;5058986;28;20049;-77
2023/11/08 00:50:36;;;;;;;1.10;1.10;;;17.50;89.50;;;;;;5058867;28;20052;-77
2023/11/08 00:53:02;;;;;;;1.20;1.10;;;17.50;89.50;;;;;;5061799;28;20060;-76
2023/11/08 00:55:28;;;;;;;1.17;1.08;;;17.50;89.50;;;;;;5077997;28;20051;-77
2023/11/08 00:57:53;;;;;;;1.52;1.42;;;17.50;89.60;;;;;;5064968;28;20414;-77
2023/11/08 01:00:19;;;;;;;2.72;1.25;;;17.50;89.50;;;;;;5063083;28;20502;-77
2023/11/08 01:02:45;;;;;;;1.10;1.10;;;17.50;89.50;;;;;;5060805;28;20045;-77
2023/11/08 01:05:15;;;;;;;1.00;1.00;;;17.50;90.10;;;;;;5044788;28;20040;-77
2023/11/08 01:07:40;;;;;;;1.20;1.20;;;17.40;89.60;;;;;;5059218;28;20048;-77
2023/11/08 01:10:07;;;;;;;1.50;1.40;;;17.50;89.60;;;;;;5061176;28;20575;-77
2023/11/08 01:12:33;;;;;;;0.80;0.80;;;17.50;89.50;;;;;;5047779;28;20421;-77
2023/11/08 01:14:59;;;;;;;1.30;1.20;;;17.50;89.50;;;;;;5058926;28;20053;-76
2023/11/08 01:17:25;;;;;;;1.17;1.17;;;17.50;89.60;;;;;;5059570;28;20039;-76
2023/11/08 01:19:50;;;;;;;1.20;1.10;;;17.50;89.50;;;;;;5061135;28;20032;-76
2023/11/08 01:22:16;;;;;;;1.10;1.10;;;17.40;89.40;;;;;;5079673;28;20061;-77
2023/11/08 01:24:42;;;;;;;1.30;1.10;;;17.50;89.60;;;;;;5068413;28;20498;-77
2023/11/08 01:27:08;;;;;;;1.27;1.17;;;17.50;89.20;;;;;;5049317;28;20041;-76
2023/11/08 01:29:34;;;;;;;1.20;1.10;;;17.50;89.50;;;;;;5056059;28;20052;-77
2023/11/08 01:32:00;;;;;;;0.98;0.98;;;17.50;89.60;;;;;;5065338;28;20044;-76
2023/11/08 01:34:25;;;;;;;0.98;0.95;;;17.50;89.60;;;;;;5064343;28;20041;-77
2023/11/08 01:36:51;;;;;;;1.50;1.20;;;17.50;89.50;;;;;;5066878;28;20037;-77
2023/11/08 01:39:17;;;;;;;1.00;1.00;;;17.40;89.60;;;;;;5062752;28;20032;-77
2023/11/08 01:41:48;;;;;;;1.15;1.05;;;17.50;89.50;;;;;;5063709;28;20036;-77
2023/11/08 01:44:22;;;;;;;1.52;1.42;;;17.50;89.60;;;;;;5061892;28;20051;-77
2023/11/08 01:46:53;;;;;;;1.50;1.20;;;17.40;89.60;;;;;;5065202;28;20037;-76
2023/11/08 01:49:19;;;;;;;1.00;1.00;;;17.40;89.60;;;;;;5047087;28;20073;-77
2023/11/08 01:51:45;;;;;;;1.08;1.00;;;17.40;89.60;;;;;;5081877;28;20052;-76
2023/11/08 01:54:10;;;;;;;2.05;1.00;;;17.40;89.60;;;;;;5063720;28;20109;-77
2023/11/08 01:56:37;;;;;;;1.20;1.10;;;17.40;89.70;;;;;;5049906;28;20593;-77
2023/11/08 01:59:02;;;;;;;1.20;1.10;;;17.40;89.70;;;;;;5064668;28;20051;-76
2023/11/08 02:01:28;;;;;;;0.90;0.90;;;17.40;89.60;;;;;;5065254;28;20033;-77
2023/11/08 02:03:54;;;;;;;1.05;0.95;;;17.40;89.60;;;;;;5066478;28;20053;-77
2023/11/08 02:06:19;;;;;;;1.50;1.40;;;17.40;89.60;;;;;;5048865;28;20055;-77
2023/11/08 02:08:45;;;;;;;1.27;1.17;;;17.40;89.60;;;;;;5063744;28;20082;-77
2023/11/08 02:11:12;;;;;;;1.20;0.88;;;17.40;89.50;;;;;;5048646;28;20463;-77
2023/11/08 02:13:38;;;;;;;1.02;0.98;;;17.40;89.70;;;;;;5077272;28;20051;-77
2023/11/08 02:16:05;;;;;;;0.95;0.95;;;17.40;89.60;;;;;;5065684;28;20127;-77
2023/11/08 02:18:33;;;;;;;1.23;1.05;;;17.40;89.60;;;;;;5066943;28;20055;-77
2023/11/08 02:21:01;;;;;;;2.97;1.17;;;17.40;89.70;;;;;;5031751;28;20052;-77
2023/11/08 02:23:28;;;;;;;1.13;1.10;;;17.40;89.60;;;;;;5061945;28;20143;-77
2023/11/08 02:25:54;;;;;;;1.17;0.90;;;17.40;89.70;;;;;;5044861;28;20074;-77
2023/11/08 02:28:20;;;;;;;1.10;1.00;;;17.40;89.70;;;;;;5064419;28;20053;-77
2023/11/08 02:30:53;;;;;;;1.20;0.90;;;17.40;89.60;;;;;;5065544;28;20047;-77
2023/11/08 02:33:23;;;;;;;0.90;0.90;;;17.40;89.70;;;;;;5060258;28;20054;-77
2023/11/08 02:35:48;;;;;;;0.90;0.90;;;17.40;89.70;;;;;;5048990;28;20127;-76
2023/11/08 02:38:14;;;;;;;1.95;1.30;;;17.40;89.70;;;;;;5047107;28;20566;-77
2023/11/08 02:40:41;;;;;;;1.23;0.70;;;17.40;89.70;;;;;;5060945;28;20040;-77
2023/11/08 02:43:08;;;;;;;0.90;0.90;;;17.40;89.70;;;;;;5066266;28;20518;-77
2023/11/08 02:45:34;;;;;;;0.90;0.85;;;17.40;89.70;;;;;;5062449;28;20045;-77
2023/11/08 02:48:02;;;;;;;1.35;1.25;;;17.30;89.70;;;;;;5092542;28;20049;-76
2023/11/08 02:50:28;;;;;;;1.00;1.00;;;17.30;89.70;;;;;;5060451;28;20127;-76
2023/11/08 02:52:54;;;;;;;1.10;1.00;;;17.30;89.60;;;;;;5045219;28;20041;-77
2023/11/08 02:55:20;;;;;;;5.90;1.02;;;17.30;89.50;;;;;;5065789;28;20052;-77
2023/11/08 02:57:46;;;;;;;1.02;0.93;;;17.30;89.60;;;;;;5063820;28;20036;-76
2023/11/08 03:00:12;;;;;;;2.25;0.80;;;17.30;89.50;;;;;;5061929;28;20067;-76
2023/11/08 03:02:39;;;;;;;1.30;0.90;;;17.30;89.50;;;;;;5061603;28;20063;-77
2023/11/08 03:05:06;;;;;;;1.35;0.80;;;17.30;89.50;;;;;;5056540;28;20406;-76
2023/11/08 03:07:32;;;;;;;0.80;0.80;;;17.30;89.60;;;;;;5023638;28;20041;-76
2023/11/08 03:09:58;;;;;;;1.13;0.60;;;17.30;89.50;;;;;;5061042;28;20198;-76
2023/11/08 03:12:24;;;;;;;0.77;0.77;;;17.30;89.70;;;;;;5062896;28;20064;-77
2023/11/08 03:14:50;;;;;;;0.70;0.70;;;17.30;89.70;;;;;;5057871;28;20080;-77
2023/11/08 03:17:17;;;;;;;0.80;0.80;;;17.30;89.70;;;;;;5044333;28;20045;-76
2023/11/08 03:19:42;;;;;;;0.80;0.80;;;17.30;89.70;;;;;;5056076;28;20044;-77
2023/11/08 03:22:09;;;;;;;0.70;0.70;;;17.30;89.80;;;;;;5061714;28;20093;-77
2023/11/08 03:24:35;;;;;;;0.90;0.90;;;17.30;89.70;;;;;;5061307;28;20040;-77
2023/11/08 03:27:01;;;;;;;1.65;0.65;;;17.30;89.70;;;;;;5060081;28;20052;-76
2023/11/08 03:29:27;;;;;;;0.93;0.90;;;17.30;89.70;;;;;;5062790;28;20548;-76
2023/11/08 03:31:52;;;;;;;0.85;0.85;;;17.30;89.70;;;;;;5056909;28;20055;-77
2023/11/08 03:34:18;;;;;;;0.63;0.60;;;17.30;89.70;;;;;;5059212;28;20061;-76
2023/11/08 03:36:43;;;;;;;1.00;0.80;;;17.30;89.70;;;;;;5061629;28;20098;-76
2023/11/08 03:39:09;;;;;;;1.10;0.68;;;17.30;89.80;;;;;;5061224;28;20072;-76
2023/11/08 03:41:36;;;;;;;1.20;1.10;;;17.30;89.50;;;;;;5060916;28;20053;-77
2023/11/08 03:44:02;;;;;;;0.90;0.90;;;17.30;89.80;;;;;;5046057;28;20745;-77
2023/11/08 03:46:28;;;;;;;1.48;1.00;;;17.30;89.80;;;;;;5063589;28;20127;-77
2023/11/08 03:48:58;;;;;;;1.00;0.90;;;17.30;89.70;;;;;;5063331;28;20471;-77
2023/11/08 03:51:24;;;;;;;0.82;0.82;;;17.30;89.70;;;;;;5060025;28;20098;-77
2023/11/08 03:53:51;;;;;;;0.60;0.60;;;17.30;89.70;;;;;;5063385;28;20510;-77
2023/11/08 03:56:17;;;;;;;0.82;0.77;;;17.30;89.60;;;;;;5047125;28;20048;-76
2023/11/08 03:58:42;;;;;;;0.93;0.90;;;17.30;89.70;;;;;;5063043;28;20536;-76
2023/11/08 04:01:08;;;;;;;0.80;0.80;;;17.30;89.80;;;;;;5059631;28;20045;-77
2023/11/08 04:03:34;;;;;;;0.80;0.80;;;17.30;89.70;;;;;;5061097;28;20044;-76
2023/11/08 04:05:59;;;;;;;1.42;0.82;;;17.20;89.80;;;;;;5044935;28;20514;-77
2023/11/08 04:08:25;;;;;;;0.75;0.75;;;17.20;89.80;;;;;;5045504;28;20533;-77
2023/11/08 04:10:52;;;;;;;0.90;0.90;;;17.30;89.90;;;;;;5060993;28;20619;-77
2023/11/08 04:13:18;;;;;;;1.15;0.82;;;17.30;89.90;;;;;;5042293;28;20131;-77
2023/11/08 04:15:44;;;;;;;0.85;0.85;;;17.20;89.90;;;;;;5058858;28;20536;-77
2023/11/08 04:18:09;;;;;;;0.68;0.68;;;17.30;89.80;;;;;;5093048;28;20394;-76
2023/11/08 04:20:35;;;;;;;0.63;0.63;;;17.30;89.60;;;;;;5058784;28;20133;-76
2023/11/08 04:23:00;;;;;;;0.90;0.90;;;17.30;89.80;;;;;;5061196;28;20060;-76
2023/11/08 04:25:26;;;;;;;0.70;0.70;;;17.30;89.80;;;;;;5061327;28;20522;-77
2023/11/08 04:27:52;;;;;;;1.30;0.70;;;17.30;89.90;;;;;;5063544;28;20044;-77
2023/11/08 04:30:17;;;;;;;0.50;0.50;;;17.30;89.80;;;;;;5062040;28;20041;-77
2023/11/08 04:32:43;;;;;;;0.80;0.80;;;17.30;90.20;;;;;;5062678;28;20476;-77
2023/11/08 04:35:09;;;;;;;0.88;0.85;;;17.30;89.80;;;;;;5061027;28;20482;-77
2023/11/08 04:37:36;;;;;;;2.03;0.77;;;17.30;89.80;;;;;;5061625;28;20082;-76
2023/11/08 04:40:02;;;;;;;0.82;0.82;;;17.30;89.80;;;;;;5063526;28;20039;-77
2023/11/08 04:42:27;;;;;;;0.70;0.70;;;17.30;89.90;;;;;;5060574;28;20045;-77
2023/11/08 04:44:53;;;;;;;0.52;0.52;;;17.30;89.80;;;;;;5060743;28;20421;-77
2023/11/08 04:47:19;;;;;;;0.80;0.80;;;17.30;89.90;;;;;;5095765;28;20036;-77
2023/11/08 04:49:47;;;;;;;0.50;0.50;;;17.30;89.80;;;;;;5061809;28;20052;-77
2023/11/08 04:52:13;;;;;;;0.70;0.70;;;17.20;89.90;;;;;;5062251;28;20052;-76
2023/11/08 04:54:39;;;;;;;0.43;0.43;;;17.20;89.80;;;;;;5059108;28;20037;-77
2023/11/08 04:57:04;;;;;;;0.63;0.63;;;17.20;89.90;;;;;;5061828;28;20098;-77
2023/11/08 04:59:30;;;;;;;0.70;0.70;;;17.30;89.80;;;;;;5066079;28;20063;-77
2023/11/08 05:01:56;;;;;;;0.73;0.73;;;17.20;89.90;;;;;;5080562;28;20506;-77
2023/11/08 05:04:21;;;;;;;0.70;0.70;;;17.20;89.90;;;;;;5065455;28;20546;-76
2023/11/08 05:06:47;;;;;;;1.23;0.80;;;17.20;89.80;;;;;;5067822;28;20052;-77
2023/11/08 05:09:15;;;;;;;0.60;0.60;;;17.30;90.00;;;;;;5097489;28;20045;-77
2023/11/08 05:11:41;;;;;;;0.90;0.80;;;17.30;89.80;;;;;;5066063;28;20101;-77
2023/11/08 05:14:07;;;;;;;0.65;0.60;;;17.30;89.90;;;;;;5062699;28;20502;-77
2023/11/08 05:16:33;;;;;;;0.60;0.60;;;17.20;89.80;;;;;;5065462;28;20075;-77
2023/11/08 05:18:58;;;;;;;0.70;0.68;;;17.30;89.90;;;;;;5065787;28;20082;-77
2023/11/08 05:21:26;;;;;;;0.50;0.50;;;17.20;89.90;;;;;;5048419;28;20154;-77
2023/11/08 05:23:52;;;;;;;1.80;0.70;;;17.20;89.90;;;;;;5062679;28;20537;-77
2023/11/08 05:26:19;;;;;;;0.63;0.63;;;17.20;89.90;;;;;;5064187;28;20048;-77
2023/11/08 05:28:44;;;;;;;0.57;0.57;;;17.20;90.20;;;;;;5066433;28;20060;-76
2023/11/08 05:31:10;;;;;;;0.50;0.50;;;17.20;89.90;;;;;;5062614;28;20533;-77
2023/11/08 05:33:39;;;;;;;1.55;0.88;;;17.20;89.90;;;;;;5067392;28;20052;-77
2023/11/08 05:36:05;;;;;;;0.57;0.50;;;17.20;89.90;;;;;;5060565;28;20438;-77
2023/11/08 05:38:30;;;;;;;0.75;0.75;;;17.20;90.00;;;;;;5033270;28;20068;-77
2023/11/08 05:40:56;;;;;;;0.60;0.60;;;17.20;89.90;;;;;;5064706;28;20060;-77
2023/11/08 05:43:22;;;;;;;2.53;0.50;;;17.20;89.90;;;;;;5030323;28;20047;-77
2023/11/08 05:45:47;;;;;;;0.60;0.60;;;17.20;89.90;;;;;;5067325;28;20051;-77
2023/11/08 05:48:13;;;;;;;0.68;0.50;;;17.20;90.00;;;;;;5065512;28;20083;-77
2023/11/08 05:50:43;;;;;;;0.50;0.50;;;17.20;90.00;;;;;;5066040;28;20064;-77
2023/11/08 05:53:08;;;;;;;0.50;0.50;;;17.20;89.90;;;;;;5059583;28;20124;-77
2023/11/08 05:55:34;;;;;;;0.60;0.60;;;17.20;90.00;;;;;;5063087;28;20483;-77
2023/11/08 05:58:00;;;;;;;0.60;0.52;;;17.20;90.00;;;;;;5081791;28;20044;-76
2023/11/08 06:00:25;;;;;;;0.85;0.80;;;17.20;90.20;;;;;;5066231;28;20558;-77
2023/11/08 06:02:51;;;;;;;0.50;0.50;;;17.20;90.00;;;;;;5064249;28;20036;-76
2023/11/08 06:05:16;;;;;;;0.50;0.50;;;17.20;90.00;;;;;;5064443;28;20041;-76
2023/11/08 06:07:44;;;;;;;0.50;0.50;;;17.20;90.00;;;;;;5046755;28;20041;-75
2023/11/08 06:10:10;;;;;;;0.60;0.60;;;17.30;90.20;;;;;;5064564;28;20123;-75
2023/11/08 06:12:36;;;;;;;1.42;0.60;;;17.30;90.20;;;;;;5063533;28;20113;-75
2023/11/08 06:15:04;;;;;;;0.57;0.57;;;17.30;90.10;;;;;;4708427;28;10000228;-75
2023/11/08 06:17:30;;;;;;;1.15;0.60;;;17.30;90.10;;;;;;5059425;28;20067;-74
2023/11/08 06:19:56;;;;;;;3.40;0.73;;;17.30;90.40;;;;;;5055894;28;20101;-75
2023/11/08 06:22:21;;;;;;;1.33;0.75;;;17.30;90.30;;;;;;5060551;28;20401;-75
2023/11/08 06:24:47;;;;;;;1.17;1.05;;;17.30;90.30;;;;;;5059263;28;20047;-75
2023/11/08 06:27:13;;;;;;;1.77;1.08;;;17.30;90.30;;;;;;5059743;28;20119;-76
2023/11/08 06:29:39;;;;;;;3.90;0.80;;;17.20;90.30;;;;;;5045125;28;20115;-76
2023/11/08 06:32:06;;;;;;;1.15;0.70;;;17.30;90.50;;;;;;5055774;28;20082;-76
2023/11/08 06:34:32;;;;;;;1.13;0.60;;;17.30;90.40;;;;;;5061275;28;20090;-76
2023/11/08 06:36:58;;;;;;;2.35;0.75;;;17.30;90.40;;;;;;5061493;28;20535;-76
2023/11/08 06:39:24;;;;;;;0.60;0.60;;;17.30;90.60;;;;;;5059840;28;20553;-75
2023/11/08 06:41:50;;;;;;;2.38;0.77;;;17.30;90.60;;;;;;5060134;28;20124;-75
2023/11/08 06:44:16;;;;;;;2.35;0.60;;;17.30;90.60;;;;;;5056173;28;20075;-76
2023/11/08 06:46:41;;;;;;;1.25;0.65;;;17.30;90.60;;;;;;5043929;28;20518;-76
2023/11/08 06:49:07;;;;;;;1.48;0.55;;;17.30;90.60;;;;;;5059614;28;20028;-76
2023/11/08 06:51:32;;;;;;;0.60;0.40;;;17.30;90.50;;;;;;5060349;28;20037;-76
2023/11/08 06:53:58;;;;;;;4.63;0.70;;;17.30;90.60;;;;;;5060656;28;20037;-75
2023/11/08 06:56:24;;;;;;;3.83;0.60;;;17.30;90.60;;;;;;5090317;28;20068;-76
2023/11/08 06:58:49;;;;;;;2.78;0.73;;;17.30;90.60;;;;;;5055046;28;20033;-75
2023/11/08 07:01:15;;;;;;;1.95;0.60;;;17.30;90.60;;;;;;5058939;28;20194;-75
2023/11/08 07:03:41;;;;;;;0.52;0.52;;;17.30;90.70;;;;;;5061559;28;20040;-74
2023/11/08 07:06:07;;;;;;;0.95;0.65;;;17.30;90.60;;;;;;5055453;28;20063;-76
2023/11/08 07:08:32;;;;;;;1.55;0.68;;;17.30;90.60;;;;;;5059502;28;20043;-76
2023/11/08 07:10:58;;;;;;;1.55;0.60;;;17.30;90.60;;;;;;5057191;28;20047;-76
2023/11/08 07:13:25;;;;;;;1.85;0.60;;;17.30;90.60;;;;;;5057797;28;20067;-77
2023/11/08 07:15:50;;;;;;;0.75;0.50;;;17.30;90.70;;;;;;5060081;28;20037;-76
2023/11/08 07:18:16;;;;;;;1.45;0.68;;;17.30;90.70;;;;;;5055395;28;20068;-76
2023/11/08 07:20:43;;;;;;;1.15;0.50;;;17.30;90.70;;;;;;5056675;28;20036;-78
2023/11/08 07:23:09;;;;;;;2.60;0.65;;;17.30;90.60;;;;;;5059429;28;20049;-74
2023/11/08 07:25:35;;;;;;;0.55;0.40;;;17.30;90.50;;;;;;5060949;28;20041;-77
2023/11/08 07:28:01;;;;;;;0.98;0.45;;;17.30;90.60;;;;;;5053411;28;20053;-77
2023/11/08 07:30:27;;;;;;;3.55;0.60;;;17.30;90.70;;;;;;5049371;28;20205;-75
2023/11/08 07:32:53;;;;;;;1.50;0.55;;;17.30;90.80;;;;;;5061196;28;20037;-75
2023/11/08 07:35:19;;;;;;;1.10;0.50;;;17.30;90.60;;;;;;5024626;28;20048;-75
2023/11/08 07:37:44;;;;;;;1.85;0.50;;;17.30;90.50;;;;;;5060125;28;20060;-76
2023/11/08 07:40:13;;;;;;;1.88;0.75;;;17.30;90.90;;;;;;5059166;28;20029;-76
2023/11/08 07:42:42;;;;;;;0.63;0.50;;;17.30;90.50;;;;;;5062400;28;20028;-76
2023/11/08 07:45:08;;;;;;;2.25;0.70;;;17.30;90.60;;;;;;5056184;28;20047;-77
2023/11/08 07:47:33;;;;;;;1.08;0.50;;;17.30;90.50;;;;;;5087181;27;20040;-77
2023/11/08 07:49:59;;;;;;;1.88;0.93;;;17.40;90.50;;;;;;5059056;28;20086;-78
2023/11/08 07:52:25;;;;;;;1.05;0.50;;;17.40;90.40;;;;;;5054698;28;20083;-75
2023/11/08 07:54:51;;;;;;;0.50;0.50;;;17.40;90.50;;;;;;5063797;28;20064;-76
2023/11/08 07:57:17;;;;;;;1.45;0.70;;;17.40;90.60;;;;;;5053929;28;20068;-78
2023/11/08 07:59:44;;;;;;;0.30;0.30;;;17.30;90.70;;;;;;5064224;28;20115;-77
2023/11/08 08:02:09;;;;;;;1.40;0.90;;;17.30;90.60;;;;;;5057398;28;20037;-79
2023/11/08 08:04:35;;;;;;;0.70;0.47;;;17.30;90.50;;;;;;5046897;28;20102;-78
2023/11/08 08:07:06;;;;;;;0.63;0.40;;;17.30;90.50;;;;;;5064050;28;20125;-78
2023/11/08 08:09:32;;;;;;;0.60;0.60;;;17.30;90.50;;;;;;5059552;28;20040;-79
2023/11/08 08:11:58;;;;;;;1.25;0.43;;;17.30;90.50;;;;;;5061983;28;20056;-77
2023/11/08 08:14:24;;;;;;;0.60;0.60;;;17.30;90.50;;;;;;5058375;28;20509;-76
2023/11/08 08:16:53;;;;;;;0.80;0.40;;;17.30;90.80;;;;;;5061833;28;20509;-75
2023/11/08 08:19:18;;;;;;;0.50;0.40;;;17.30;90.40;;;;;;5045975;28;20047;-75
2023/11/08 08:21:44;;;;;;;1.85;0.70;;;17.30;90.50;;;;;;5062513;28;20044;-80
2023/11/08 08:24:10;;;;;;;0.60;0.60;;;17.30;90.40;;;;;;5061148;28;20098;-76
2023/11/08 08:26:35;;;;;;;1.13;0.55;;;17.30;90.40;;;;;;5060796;28;20067;-77
2023/11/08 08:29:01;;;;;;;0.68;0.47;;;17.30;90.40;;;;;;5063315;28;20620;-77
2023/11/08 08:31:27;;;;;;;1.00;0.45;;;17.30;90.50;;;;;;5060704;28;20053;-76
2023/11/08 08:33:56;;;;;;;1.45;0.25;;;17.30;90.50;;;;;;5067625;28;20583;-77
2023/11/08 08:36:22;;;;;;;0.57;0.50;;;17.30;90.40;;;;;;5064928;28;20044;-77
2023/11/08 08:38:48;;;;;;;5.65;0.55;;;17.30;90.40;;;;;;5067974;28;20039;-79
2023/11/08 08:41:13;;;;;;;0.50;0.40;;;17.30;90.40;;;;;;5065455;28;20037;-80
2023/11/08 08:43:39;;;;;;;1.10;0.60;;;17.30;90.50;;;;;;5047056;28;20090;-77
2023/11/08 08:46:05;;;;;;;1.13;0.70;;;17.30;90.50;;;;;;5033024;28;20052;-77
2023/11/08 08:48:30;;;;;;;2.35;0.70;;;17.30;90.40;;;;;;5048746;28;20094;-77
2023/11/08 08:50:57;;;;;;;1.13;0.88;;;17.30;90.40;;;;;;5065911;28;20395;-76
2023/11/08 08:53:23;;;;;;;1.67;1.02;;;17.30;90.40;;;;;;5050924;28;20132;-78
2023/11/08 08:55:48;;;;;;;1.73;0.73;;;17.40;90.50;;;;;;5096548;28;20480;-79
2023/11/08 08:58:14;;;;;;;0.85;0.50;;;17.30;90.40;;;;;;5064768;28;20712;-80
2023/11/08 09:00:40;;;;;;;2.60;0.60;;;17.30;90.30;;;;;;5066749;28;20398;-77
2023/11/08 09:03:06;;;;;;;1.13;0.60;;;17.30;90.40;;;;;;5049972;28;20086;-77
2023/11/08 09:05:32;;;;;;;1.40;0.68;;;17.30;90.40;;;;;;5066925;28;20033;-74
2023/11/08 09:07:58;;;;;;;0.60;0.50;;;17.30;90.30;;;;;;5046681;28;20581;-77
2023/11/08 09:10:24;;;;;;;2.92;0.47;;;17.30;90.40;;;;;;5065205;28;20048;-75
2023/11/08 09:12:50;;;;;;;0.95;0.50;;;17.30;90.40;;;;;;5049066;28;20075;-75
2023/11/08 09:15:17;;;;;;;0.60;0.45;;;17.40;90.40;;;;;;5065099;28;20071;-75
2023/11/08 09:17:42;;;;;;;1.50;0.40;;;17.40;90.40;;;;;;5047371;28;20189;-75
2023/11/08 09:20:08;;;;;;;1.13;0.50;;;17.30;90.30;;;;;;5054491;28;20533;-74
2023/11/08 09:22:34;;;;;;;0.82;0.65;;;17.30;90.40;;;;;;5063943;28;20048;-77
2023/11/08 09:25:01;;;;;;;0.93;0.30;;;17.30;90.40;;;;;;5097197;28;20106;-76
2023/11/08 09:27:26;;;;;;;1.58;0.52;;;17.30;90.40;;;;;;5061442;28;20041;-75
2023/11/08 09:29:52;;;;;;;0.65;0.55;;;17.30;90.40;;;;;;5066740;28;20566;-75
2023/11/08 09:32:17;;;;;;;0.28;0.28;;;17.30;90.40;;;;;;5064889;28;20044;-77
2023/11/08 09:34:43;;;;;;;1.85;0.47;;;17.30;90.40;;;;;;5077435;28;20032;-74
2023/11/08 09:37:10;;;;;;;1.00;0.50;;;17.30;90.40;;;;;;5067249;28;20028;-77
2023/11/08 09:39:36;;;;;;;0.40;0.40;;;17.30;90.40;;;;;;5064060;28;20032;-78
2023/11/08 09:42:03;;;;;;;0.55;0.38;;;17.30;90.50;;;;;;5064516;28;20501;-77
2023/11/08 09:44:29;;;;;;;0.60;0.40;;;17.30;90.40;;;;;;5062859;28;20078;-77
2023/11/08 09:46:55;;;;;;;0.45;0.30;;;17.30;90.50;;;;;;5049382;28;20020;-77
2023/11/08 09:49:24;;;;;;;0.93;0.52;;;17.30;90.50;;;;;;5049412;28;20047;-77
2023/11/08 09:51:52;;;;;;;0.70;0.43;;;17.30;90.40;;;;;;5083479;28;20111;-77
2023/11/08 09:54:18;;;;;;;0.60;0.47;;;17.30;90.50;;;;;;5035038;28;20039;-77
2023/11/08 09:56:46;;;;;;;0.95;0.73;;;17.30;90.40;;;;;;5032599;28;20041;-76
2023/11/08 09:59:16;;;;;;;1.45;0.30;;;17.30;90.40;;;;;;5045497;28;20455;-77
2023/11/08 10:01:45;;;;;;;0.60;0.50;;;17.30;90.50;;;;;;5079630;28;20044;-77
2023/11/08 10:04:15;;;;;;;1.23;0.40;;;17.30;90.50;;;;;;5096961;28;20113;-77
2023/11/08 10:06:41;;;;;;;16.58;0.90;;;17.30;90.40;;;;;;5057947;28;20040;-77
2023/11/08 10:09:08;;;;;;;1.60;0.47;;;17.30;90.50;;;;;;5066325;28;20632;-77
2023/11/08 10:11:35;;;;;;;1.10;0.50;;;17.30;90.40;;;;;;5027478;28;20063;-77
2023/11/08 10:14:00;;;;;;;0.80;0.50;;;17.40;90.40;;;;;;5061673;28;20647;-77
2023/11/08 10:16:27;;;;;;;1.27;0.40;;;17.30;90.40;;;;;;5063519;28;20066;-76
2023/11/08 10:18:54;;;;;;;0.93;0.70;;;17.30;90.40;;;;;;5041268;28;20154;-76
2023/11/08 10:21:20;;;;;;;0.50;0.30;;;17.40;90.50;;;;;;5052649;28;20037;-77
2023/11/08 10:23:50;;;;;;;0.50;0.40;;;17.30;90.40;;;;;;5046668;28;20049;-77
2023/11/08 10:26:20;;;;;;;0.88;0.50;;;17.30;90.40;;;;;;5058669;28;20036;-77
2023/11/08 10:29:01;;;;;;;0.65;0.45;;;17.40;90.50;;;;;;5061550;28;20128;-78
2023/11/08 10:31:32;;;;;;;1.92;0.50;;;17.40;90.40;;;;;;4705949;28;9999610;-77
2023/11/08 10:33:58;;;;;;;0.98;0.55;;;17.40;90.40;;;;;;5062479;28;20063;-78
2023/11/08 10:36:25;;;;;;;0.57;0.45;;;17.40;90.40;;;;;;5045853;28;20652;-78
2023/11/08 10:38:50;;;;;;;2.13;0.40;;;17.40;90.40;;;;;;5056744;28;20120;-77
2023/11/08 10:41:16;;;;;;;1.10;0.70;;;17.40;90.90;;;;;;5043385;28;20119;-77
2023/11/08 10:43:43;;;;;;;1.42;0.88;;;;;;;;;;5057445;28;20510;-78
2023/11/08 10:46:10;;;;;;;2.10;0.63;;;17.30;69.70;;;;;;5060512;28;20066;-77
2023/11/08 10:48:36;;;;;;;0.77;0.70;;;17.40;69.90;;;;;;5055850;28;20136;-79
2023/11/08 10:51:02;;;;;;;0.70;0.52;;;17.30;70.30;;;;;;5059085;28;20055;-77
2023/11/08 10:53:28;;;;;;;0.73;0.52;;;17.30;69.90;;;;;;5025028;28;20858;-77
2023/11/08 10:55:54;;;;;;;0.93;0.60;;;17.30;70.00;;;;;;5027002;28;20082;-76
2023/11/08 10:58:19;;;;;;;0.80;0.70;;;17.30;70.00;;;;;;5074075;28;20419;-77
2023/11/08 11:00:45;;;;;;;0.60;0.60;;;17.30;70.80;;;;;;5061246;28;20045;-76
2023/11/08 11:03:11;;;;;;;0.80;0.80;;;17.30;70.10;;;;;;5075880;28;20052;-77
2023/11/08 11:05:40;;;;;;;0.98;0.90;;;17.30;70.50;;;;;;5057871;28;20032;-78
2023/11/08 11:08:05;;;;;;;2.00;1.15;;;17.30;70.10;;;;;;5044659;28;20045;-78
2023/11/08 11:10:31;;;;;;;1.08;0.95;;;17.40;70.30;;;;;;5056493;28;20039;-76
2023/11/08 11:13:09;;;;;;;1.15;1.05;;;17.30;70.30;;;;;;5060662;28;20055;-76
2023/11/08 11:15:59;;;;;;;1.88;0.98;;;17.30;70.30;;;;;;5044535;28;20600;-77
2023/11/08 11:18:34;;;;;;;0.88;0.68;;;17.40;70.80;;;;;;5058943;28;20076;-78
2023/11/08 11:21:18;;;;;;;3.33;0.70;;;17.30;70.40;;;;;;5072927;28;20111;-76
2023/11/08 11:23:43;;;;;;;0.73;0.60;;;17.30;70.50;;;;;;5068370;28;20052;-77
2023/11/08 11:26:12;;;;;;;0.82;0.82;;;17.30;70.40;;;;;;5059268;28;20040;-76
2023/11/08 11:28:54;;;;;;;0.90;0.90;;;17.40;70.30;;;;;;5058743;28;20060;-77
2023/11/08 11:31:36;;;;;;;0.85;0.82;;;17.30;70.40;;;;;;5042430;28;20076;-77
2023/11/08 11:34:22;;;;;;;1.52;0.95;;;17.40;70.40;;;;;;5060252;28;20090;-77
2023/11/08 11:37:18;;;;;;;0.82;0.80;;;17.40;70.40;;;;;;5060584;28;20037;-77
2023/11/08 11:39:52;;;;;;;1.10;0.77;;;17.40;70.50;;;;;;5061002;28;20052;-77
2023/11/08 11:42:24;;;;;;;2.15;0.75;;;17.30;70.50;;;;;;5056125;28;20033;-77
2023/11/08 11:45:00;;;;;;;2.25;0.90;;;17.30;70.40;;;;;;5028329;28;20052;-77
2023/11/08 11:47:30;;;;;;;1.05;0.80;;;17.40;70.80;;;;;;5074622;28;20098;-77
2023/11/08 11:50:01;;;;;;;0.98;0.63;;;17.40;70.40;;;;;;5086869;28;20051;-77
2023/11/08 11:52:28;;;;;;;0.60;0.52;;;17.40;70.60;;;;;;5059505;28;20037;-77
2023/11/08 11:54:55;;;;;;;0.77;0.77;;;17.40;70.50;;;;;;5061691;28;20043;-76
2023/11/08 11:57:25;;;;;;;0.50;0.50;;;17.40;70.50;;;;;;5057940;28;20090;-77
2023/11/08 11:59:53;;;;;;;1.52;0.65;;;17.40;70.50;;;;;;5059001;28;20153;-76
2023/11/08 12:02:18;;;;;;;1.00;0.60;;;17.40;70.40;;;;;;5042238;28;20032;-76
2023/11/08 12:04:44;;;;;;;2.17;0.82;;;17.40;70.40;;;;;;5060359;28;20051;-76
2023/11/08 12:07:11;;;;;;;0.73;0.65;;;17.40;71.50;;;;;;5059386;28;20040;-75
2023/11/08 12:09:37;;;;;;;1.33;0.50;;;17.40;70.40;;;;;;5043024;28;20051;-75
2023/11/08 12:12:03;;;;;;;0.60;0.60;;;17.40;70.60;;;;;;5057297;28;20040;-76
2023/11/08 12:14:29;;;;;;;1.60;0.60;;;17.50;71.20;;;;;;5043785;28;20106;-76
2023/11/08 12:16:55;;;;;;;0.50;0.50;;;17.40;71.30;;;;;;5046879;28;20041;-76
2023/11/08 12:19:20;;;;;;;1.08;0.98;;;17.40;70.80;;;;;;5061621;28;20075;-76
2023/11/08 12:21:46;;;;;;;4.72;0.63;;;17.40;70.90;;;;;;5093893;28;20053;-76
2023/11/08 12:24:12;;;;;;;0.60;0.50;;;17.40;70.70;;;;;;5046197;28;20048;-75
2023/11/08 12:26:38;;;;;;;1.02;0.70;;;17.40;70.60;;;;;;5063363;28;20135;-76
2023/11/08 12:29:06;;;;;;;0.60;0.60;;;17.40;70.50;;;;;;5062706;28;20589;-76
2023/11/08 12:31:31;;;;;;;0.77;0.75;;;17.40;70.60;;;;;;5078842;28;20123;-76
2023/11/08 12:33:58;;;;;;;0.80;0.70;;;17.30;70.50;;;;;;5064482;28;20116;-76
2023/11/08 12:36:24;;;;;;;1.30;0.47;;;17.30;70.50;;;;;;5061362;28;20045;-76
2023/11/08 12:38:49;;;;;;;0.80;0.60;;;17.30;70.50;;;;;;5059813;28;20078;-76
2023/11/08 12:41:17;;;;;;;1.48;0.65;;;17.40;70.50;;;;;;5060665;28;20036;-76
2023/11/08 12:43:56;;;;;;;0.70;0.50;;;17.30;70.50;;;;;;5059487;28;20048;-76
2023/11/08 12:46:21;;;;;;;0.93;0.60;;;17.30;70.50;;;;;;5059587;28;20053;-76